APL Denmark — A8JX9 — position and weather

sailwx.info

Track history (hours):
 
Tides and Currents Weather Stations Pressure Air Temp Water Temp Dewpoint Dewpoint Depression Visibility Wind Speed Wind Dir Waves Ship Positions

APL Denmark

Last reported at 2017-Jan-17 20:21 UTC. Time now 2017-Jan-19 14:57 UTC.
Position S 22°58' W 041°44'.

Length 277 m; beam 40 m; draft 14 m.

Type: Ship. MMSI: 636091157.

Date/timePositionNaut miles runAvg speedWind from/ knotsBaromVisibWave heightAir tempDewpointWater temp
2017-Jan-17 20:21S 22°58' W 041°44'1214.8
2017-Jan-17 19:33S 23°05' W 041°54'4715.3
2017-Jan-17 16:30S 23°09' W 042°45'1516.0
2017-Jan-17 15:33S 23°09' W 043°01'175 4.5
2017-Jan-16 00:33S 24°15' W 045°57'1211.6
2017-Jan-15 23:33S 24°15' W 046°10'1110.8
2017-Jan-15 22:34S 24°14' W 046°22'1110.7
2017-Jan-15 21:33S 24°03' W 046°22'7 6.7
2017-Jan-15 20:33S 23°57' W 046°19'1 0.2
2017-Jan-15 12:20S 23°56' W 046°19'0 0.0
2017-Jan-15 11:29S 23°56' W 046°19'1 0.1
2017-Jan-15 04:23S 23°56' W 046°19'5 5.9
2017-Jan-15 03:33S 24°01' W 046°20'9 9.5
2017-Jan-15 02:34S 24°10' W 046°24'2 2.5
2017-Jan-15 01:33S 24°12' W 046°25'0 0.4
2017-Jan-15 00:33S 24°12' W 046°24'0 0.4
2017-Jan-14 23:33S 24°12' W 046°24'3 3.0
2017-Jan-14 22:33S 24°15' W 046°26'1514.8
2017-Jan-14 21:33S 24°28' W 046°33'1514.9
2017-Jan-14 20:33S 24°41' W 046°42'1515.0
2017-Jan-14 19:33S 24°53' W 046°51'175 6.0
2017-Jan-13 14:14S 27°31' W 048°16'1317.9
2017-Jan-13 13:31S 27°44' W 048°16'1818.5
2017-Jan-13 12:33S 28°01' W 048°18'  
2017-Jan-09 04:22S 34°44' W 057°42'911.4
2017-Jan-09 03:33S 34°43' W 057°53'1514.7
2017-Jan-09 02:33S 34°38' W 058°09'9 8.1
2017-Jan-09 01:24S 34°38' W 058°21'1 0.2
2017-Jan-08 21:28S 34°39' W 058°21'0 0.0
2017-Jan-08 16:16S 34°39' W 058°21'0 0.0
2017-Jan-08 15:28S 34°39' W 058°21'0 0.0
2017-Jan-08 14:28S 34°39' W 058°21'0 0.0
2017-Jan-08 13:28S 34°39' W 058°21'0 0.0
2017-Jan-08 12:28S 34°39' W 058°21'0 0.0
2017-Jan-08 11:28S 34°39' W 058°21'0 0.0
2017-Jan-08 10:22S 34°39' W 058°21'0 0.0
2017-Jan-08 09:28S 34°39' W 058°21'0 0.0
2017-Jan-08 08:28S 34°39' W 058°21'0 0.0
2017-Jan-08 07:28S 34°39' W 058°21'0 0.0
2017-Jan-08 06:28S 34°39' W 058°21'1 0.6
2017-Jan-08 05:33S 34°38' W 058°21'9 9.0
2017-Jan-08 04:33S 34°37' W 058°10'1414.0
2017-Jan-08 03:34S 34°42' W 057°54'1 0.8
2017-Jan-08 02:32S 34°43' W 057°54'0 0.2
2017-Jan-08 01:26S 34°43' W 057°53'0 0.1
2017-Jan-08 00:32S 34°43' W 057°53'0 0.1
2017-Jan-07 23:32S 34°43' W 057°53'0 0.2
2017-Jan-07 22:32S 34°43' W 057°53'0 0.1
2017-Jan-07 21:32S 34°43' W 057°53'0 0.0
2017-Jan-07 20:32S 34°43' W 057°53'  
Track history (hours):
 
Tides and Currents Weather Stations Pressure Air Temp Water Temp Dewpoint Dewpoint Depression Visibility Wind Speed Wind Dir Waves Ship Positions

APL Denmark

Last reported at 2017-Jan-17 20:21 UTC. Time now 2017-Jan-19 14:57 UTC.
Position S 22°58' W 041°44'.

Length 277 m; beam 40 m; draft 14 m.

Type: Ship. MMSI: 636091157.

Date/timePositionNaut miles runAvg speedWind from/ knotsBaromVisibWave heightAir tempDewpointWater temp
2017-Jan-17 20:21S 22°58' W 041°44'1214.8
2017-Jan-17 19:33S 23°05' W 041°54'4715.3
2017-Jan-17 16:30S 23°09' W 042°45'1516.0
2017-Jan-17 15:33S 23°09' W 043°01'175 4.5
2017-Jan-16 00:33S 24°15' W 045°57'1211.6
2017-Jan-15 23:33S 24°15' W 046°10'1110.8
2017-Jan-15 22:34S 24°14' W 046°22'1110.7
2017-Jan-15 21:33S 24°03' W 046°22'7 6.7
2017-Jan-15 20:33S 23°57' W 046°19'1 0.2
2017-Jan-15 12:20S 23°56' W 046°19'0 0.0
2017-Jan-15 11:29S 23°56' W 046°19'1 0.1
2017-Jan-15 04:23S 23°56' W 046°19'5 5.9
2017-Jan-15 03:33S 24°01' W 046°20'9 9.5
2017-Jan-15 02:34S 24°10' W 046°24'2 2.5
2017-Jan-15 01:33S 24°12' W 046°25'0 0.4
2017-Jan-15 00:33S 24°12' W 046°24'0 0.4
2017-Jan-14 23:33S 24°12' W 046°24'3 3.0
2017-Jan-14 22:33S 24°15' W 046°26'1514.8
2017-Jan-14 21:33S 24°28' W 046°33'1514.9
2017-Jan-14 20:33S 24°41' W 046°42'1515.0
2017-Jan-14 19:33S 24°53' W 046°51'175 6.0
2017-Jan-13 14:14S 27°31' W 048°16'1317.9
2017-Jan-13 13:31S 27°44' W 048°16'1818.5
2017-Jan-13 12:33S 28°01' W 048°18'  
2017-Jan-09 04:22S 34°44' W 057°42'911.4
2017-Jan-09 03:33S 34°43' W 057°53'1514.7
2017-Jan-09 02:33S 34°38' W 058°09'9 8.1
2017-Jan-09 01:24S 34°38' W 058°21'1 0.2
2017-Jan-08 21:28S 34°39' W 058°21'0 0.0
2017-Jan-08 16:16S 34°39' W 058°21'0 0.0
2017-Jan-08 15:28S 34°39' W 058°21'0 0.0
2017-Jan-08 14:28S 34°39' W 058°21'0 0.0
2017-Jan-08 13:28S 34°39' W 058°21'0 0.0
2017-Jan-08 12:28S 34°39' W 058°21'0 0.0
2017-Jan-08 11:28S 34°39' W 058°21'0 0.0
2017-Jan-08 10:22S 34°39' W 058°21'0 0.0
2017-Jan-08 09:28S 34°39' W 058°21'0 0.0
2017-Jan-08 08:28S 34°39' W 058°21'0 0.0
2017-Jan-08 07:28S 34°39' W 058°21'0 0.0
2017-Jan-08 06:28S 34°39' W 058°21'1 0.6
2017-Jan-08 05:33S 34°38' W 058°21'9 9.0
2017-Jan-08 04:33S 34°37' W 058°10'1414.0
2017-Jan-08 03:34S 34°42' W 057°54'1 0.8
2017-Jan-08 02:32S 34°43' W 057°54'0 0.2
2017-Jan-08 01:26S 34°43' W 057°53'0 0.1
2017-Jan-08 00:32S 34°43' W 057°53'0 0.1
2017-Jan-07 23:32S 34°43' W 057°53'0 0.2
2017-Jan-07 22:32S 34°43' W 057°53'0 0.1
2017-Jan-07 21:32S 34°43' W 057°53'0 0.0
2017-Jan-07 20:32S 34°43' W 057°53'  

Dump ship's entire track history